sensor_id;sensor_type;location;lat;lon;timestamp;P1;durP1;ratioP1;P2;durP2;ratioP2
6868;SDS011;3473;42.604;23.496;2023-04-24T00:00:27;5.97;;;3.03;;
6868;SDS011;3473;42.604;23.496;2023-04-24T00:01:58;5.10;;;2.90;;
6868;SDS011;3473;42.604;23.496;2023-04-24T00:03:31;7.43;;;2.70;;
6868;SDS011;3473;42.604;23.496;2023-04-24T00:05:03;3.93;;;2.63;;
6868;SDS011;3473;42.604;23.496;2023-04-24T00:06:34;5.23;;;3.00;;
6868;SDS011;3473;42.604;23.496;2023-04-24T00:08:07;4.80;;;2.30;;
6868;SDS011;3473;42.604;23.496;2023-04-24T00:09:38;5.47;;;2.63;;
6868;SDS011;3473;42.604;23.496;2023-04-24T00:11:09;2.50;;;1.30;;
6868;SDS011;3473;42.604;23.496;2023-04-24T00:12:41;3.60;;;2.60;;
6868;SDS011;3473;42.604;23.496;2023-04-24T00:14:27;3.07;;;1.83;;
6868;SDS011;3473;42.604;23.496;2023-04-24T00:15:58;4.13;;;2.07;;
6868;SDS011;3473;42.604;23.496;2023-04-24T00:17:31;4.43;;;2.57;;
6868;SDS011;3473;42.604;23.496;2023-04-24T00:19:02;4.50;;;2.17;;
6868;SDS011;3473;42.604;23.496;2023-04-24T00:20:36;2.73;;;1.77;;
6868;SDS011;3473;42.604;23.496;2023-04-24T00:22:07;6.33;;;2.80;;
6868;SDS011;3473;42.604;23.496;2023-04-24T00:23:39;4.83;;;1.70;;
6868;SDS011;3473;42.604;23.496;2023-04-24T00:25:10;4.20;;;2.10;;
6868;SDS011;3473;42.604;23.496;2023-04-24T00:26:42;3.17;;;2.47;;
6868;SDS011;3473;42.604;23.496;2023-04-24T00:28:13;4.80;;;2.40;;
6868;SDS011;3473;42.604;23.496;2023-04-24T00:29:43;3.17;;;1.97;;
6868;SDS011;3473;42.604;23.496;2023-04-24T00:31:15;3.57;;;2.03;;
6868;SDS011;3473;42.604;23.496;2023-04-24T00:32:47;2.97;;;2.00;;
6868;SDS011;3473;42.604;23.496;2023-04-24T00:34:18;1.77;;;1.23;;
6868;SDS011;3473;42.604;23.496;2023-04-24T00:36:04;5.30;;;2.27;;
6868;SDS011;3473;42.604;23.496;2023-04-24T00:37:36;5.53;;;2.27;;
6868;SDS011;3473;42.604;23.496;2023-04-24T00:39:07;3.27;;;2.10;;
6868;SDS011;3473;42.604;23.496;2023-04-24T00:40:39;5.93;;;1.47;;
6868;SDS011;3473;42.604;23.496;2023-04-24T00:42:11;4.43;;;2.17;;
6868;SDS011;3473;42.604;23.496;2023-04-24T00:43:43;3.10;;;1.20;;
6868;SDS011;3473;42.604;23.496;2023-04-24T00:45:14;5.93;;;3.00;;
6868;SDS011;3473;42.604;23.496;2023-04-24T00:46:46;2.53;;;1.53;;
6868;SDS011;3473;42.604;23.496;2023-04-24T00:48:18;3.43;;;2.47;;
6868;SDS011;3473;42.604;23.496;2023-04-24T00:49:50;3.90;;;2.20;;
6868;SDS011;3473;42.604;23.496;2023-04-24T00:51:20;3.70;;;2.40;;
6868;SDS011;3473;42.604;23.496;2023-04-24T00:52:54;5.60;;;3.23;;
6868;SDS011;3473;42.604;23.496;2023-04-24T00:54:26;6.43;;;3.10;;
6868;SDS011;3473;42.604;23.496;2023-04-24T00:55:57;4.83;;;2.93;;
6868;SDS011;3473;42.604;23.496;2023-04-24T00:57:29;4.83;;;2.90;;
6868;SDS011;3473;42.604;23.496;2023-04-24T00:59:00;7.47;;;3.40;;
6868;SDS011;3473;42.604;23.496;2023-04-24T01:00:31;6.80;;;3.47;;
6868;SDS011;3473;42.604;23.496;2023-04-24T01:02:02;5.40;;;3.23;;
6868;SDS011;3473;42.604;23.496;2023-04-24T01:03:35;4.83;;;2.87;;
6868;SDS011;3473;42.604;23.496;2023-04-24T01:05:07;5.03;;;3.00;;
6868;SDS011;3473;42.604;23.496;2023-04-24T01:06:39;5.00;;;2.83;;
6868;SDS011;3473;42.604;23.496;2023-04-24T01:08:11;5.17;;;2.93;;
6868;SDS011;3473;42.604;23.496;2023-04-24T01:09:42;8.90;;;4.13;;
6868;SDS011;3473;42.604;23.496;2023-04-24T01:11:17;8.33;;;3.90;;
6868;SDS011;3473;42.604;23.496;2023-04-24T01:12:48;6.50;;;3.33;;
6868;SDS011;3473;42.604;23.496;2023-04-24T01:14:21;7.97;;;3.33;;
6868;SDS011;3473;42.604;23.496;2023-04-24T01:15:51;7.77;;;2.97;;
6868;SDS011;3473;42.604;23.496;2023-04-24T01:17:23;7.33;;;3.20;;
6868;SDS011;3473;42.604;23.496;2023-04-24T01:18:56;6.73;;;3.10;;
6868;SDS011;3473;42.604;23.496;2023-04-24T01:20:27;7.00;;;3.27;;
6868;SDS011;3473;42.604;23.496;2023-04-24T01:22:00;7.10;;;3.10;;
6868;SDS011;3473;42.604;23.496;2023-04-24T01:23:34;7.87;;;3.50;;
6868;SDS011;3473;42.604;23.496;2023-04-24T01:25:06;7.10;;;3.47;;
6868;SDS011;3473;42.604;23.496;2023-04-24T01:26:37;11.30;;;2.93;;
6868;SDS011;3473;42.604;23.496;2023-04-24T01:28:09;4.80;;;3.03;;
6868;SDS011;3473;42.604;23.496;2023-04-24T01:29:41;6.10;;;3.40;;
6868;SDS011;3473;42.604;23.496;2023-04-24T01:31:12;8.07;;;3.40;;
6868;SDS011;3473;42.604;23.496;2023-04-24T01:32:43;6.70;;;3.70;;
6868;SDS011;3473;42.604;23.496;2023-04-24T01:34:15;7.67;;;3.63;;
6868;SDS011;3473;42.604;23.496;2023-04-24T01:35:47;8.60;;;4.10;;
6868;SDS011;3473;42.604;23.496;2023-04-24T01:37:19;7.10;;;3.43;;
6868;SDS011;3473;42.604;23.496;2023-04-24T01:38:51;6.40;;;3.50;;
6868;SDS011;3473;42.604;23.496;2023-04-24T01:40:22;6.67;;;3.37;;
6868;SDS011;3473;42.604;23.496;2023-04-24T01:41:54;6.20;;;3.50;;
6868;SDS011;3473;42.604;23.496;2023-04-24T01:43:25;5.90;;;3.10;;
6868;SDS011;3473;42.604;23.496;2023-04-24T01:44:57;6.33;;;3.03;;
6868;SDS011;3473;42.604;23.496;2023-04-24T01:46:28;8.03;;;3.43;;
6868;SDS011;3473;42.604;23.496;2023-04-24T01:48:00;8.60;;;3.40;;
6868;SDS011;3473;42.604;23.496;2023-04-24T01:49:32;6.80;;;3.57;;
6868;SDS011;3473;42.604;23.496;2023-04-24T01:51:03;5.83;;;3.10;;
6868;SDS011;3473;42.604;23.496;2023-04-24T01:52:34;4.57;;;3.00;;
6868;SDS011;3473;42.604;23.496;2023-04-24T01:54:07;4.23;;;2.77;;
6868;SDS011;3473;42.604;23.496;2023-04-24T01:55:38;3.87;;;1.97;;
6868;SDS011;3473;42.604;23.496;2023-04-24T01:57:10;2.87;;;1.80;;
6868;SDS011;3473;42.604;23.496;2023-04-24T01:58:40;9.17;;;2.80;;
6868;SDS011;3473;42.604;23.496;2023-04-24T02:00:12;5.90;;;2.80;;
6868;SDS011;3473;42.604;23.496;2023-04-24T02:01:44;5.27;;;2.77;;
6868;SDS011;3473;42.604;23.496;2023-04-24T02:03:15;5.37;;;3.00;;
6868;SDS011;3473;42.604;23.496;2023-04-24T02:04:47;4.73;;;2.80;;
6868;SDS011;3473;42.604;23.496;2023-04-24T02:06:18;5.37;;;3.30;;
6868;SDS011;3473;42.604;23.496;2023-04-24T02:07:49;6.97;;;3.30;;
6868;SDS011;3473;42.604;23.496;2023-04-24T02:09:22;5.63;;;3.17;;
6868;SDS011;3473;42.604;23.496;2023-04-24T02:10:53;6.70;;;3.07;;
6868;SDS011;3473;42.604;23.496;2023-04-24T02:12:24;4.03;;;2.63;;
6868;SDS011;3473;42.604;23.496;2023-04-24T02:13:55;5.37;;;3.30;;
6868;SDS011;3473;42.604;23.496;2023-04-24T02:15:29;5.17;;;2.87;;
6868;SDS011;3473;42.604;23.496;2023-04-24T02:17:00;6.70;;;3.47;;
6868;SDS011;3473;42.604;23.496;2023-04-24T02:18:31;6.60;;;3.80;;
6868;SDS011;3473;42.604;23.496;2023-04-24T02:20:03;4.90;;;3.40;;
6868;SDS011;3473;42.604;23.496;2023-04-24T02:21:35;6.50;;;3.23;;
6868;SDS011;3473;42.604;23.496;2023-04-24T02:23:05;5.93;;;3.10;;
6868;SDS011;3473;42.604;23.496;2023-04-24T02:24:38;5.10;;;3.13;;
6868;SDS011;3473;42.604;23.496;2023-04-24T02:26:10;6.70;;;3.47;;
6868;SDS011;3473;42.604;23.496;2023-04-24T02:27:42;7.03;;;3.50;;
6868;SDS011;3473;42.604;23.496;2023-04-24T02:29:13;5.93;;;3.27;;
6868;SDS011;3473;42.604;23.496;2023-04-24T02:30:45;7.07;;;3.57;;
6868;SDS011;3473;42.604;23.496;2023-04-24T02:32:15;8.70;;;3.53;;
6868;SDS011;3473;42.604;23.496;2023-04-24T02:33:47;6.83;;;3.97;;
6868;SDS011;3473;42.604;23.496;2023-04-24T02:35:18;7.27;;;3.60;;
6868;SDS011;3473;42.604;23.496;2023-04-24T02:36:50;6.80;;;3.77;;
6868;SDS011;3473;42.604;23.496;2023-04-24T02:38:20;7.07;;;3.50;;
6868;SDS011;3473;42.604;23.496;2023-04-24T02:39:53;10.33;;;3.30;;
6868;SDS011;3473;42.604;23.496;2023-04-24T02:41:25;7.67;;;4.20;;
6868;SDS011;3473;42.604;23.496;2023-04-24T02:43:01;8.77;;;3.80;;
6868;SDS011;3473;42.604;23.496;2023-04-24T02:44:31;5.87;;;3.60;;
6868;SDS011;3473;42.604;23.496;2023-04-24T02:46:03;8.23;;;4.03;;
6868;SDS011;3473;42.604;23.496;2023-04-24T02:47:33;7.23;;;3.67;;
6868;SDS011;3473;42.604;23.496;2023-04-24T02:49:05;7.20;;;3.90;;
6868;SDS011;3473;42.604;23.496;2023-04-24T02:50:35;8.53;;;4.17;;
6868;SDS011;3473;42.604;23.496;2023-04-24T02:52:07;9.90;;;3.70;;
6868;SDS011;3473;42.604;23.496;2023-04-24T02:53:38;6.33;;;3.80;;
6868;SDS011;3473;42.604;23.496;2023-04-24T02:55:10;6.30;;;3.40;;
6868;SDS011;3473;42.604;23.496;2023-04-24T02:56:42;7.67;;;3.77;;
6868;SDS011;3473;42.604;23.496;2023-04-24T02:58:12;7.77;;;3.93;;
6868;SDS011;3473;42.604;23.496;2023-04-24T02:59:44;9.80;;;3.90;;
6868;SDS011;3473;42.604;23.496;2023-04-24T03:01:15;7.93;;;4.10;;
6868;SDS011;3473;42.604;23.496;2023-04-24T03:02:47;10.03;;;4.23;;
6868;SDS011;3473;42.604;23.496;2023-04-24T03:04:19;9.60;;;4.37;;
6868;SDS011;3473;42.604;23.496;2023-04-24T03:05:52;8.67;;;3.93;;
6868;SDS011;3473;42.604;23.496;2023-04-24T03:07:24;9.43;;;4.57;;
6868;SDS011;3473;42.604;23.496;2023-04-24T03:08:55;9.30;;;4.30;;
6868;SDS011;3473;42.604;23.496;2023-04-24T03:10:28;12.33;;;5.30;;
6868;SDS011;3473;42.604;23.496;2023-04-24T03:11:59;11.10;;;5.47;;
6868;SDS011;3473;42.604;23.496;2023-04-24T03:13:31;7.13;;;4.23;;
6868;SDS011;3473;42.604;23.496;2023-04-24T03:15:02;10.73;;;3.97;;
6868;SDS011;3473;42.604;23.496;2023-04-24T03:16:33;11.17;;;4.30;;
6868;SDS011;3473;42.604;23.496;2023-04-24T03:18:04;9.97;;;3.87;;
6868;SDS011;3473;42.604;23.496;2023-04-24T03:19:36;7.53;;;3.77;;
6868;SDS011;3473;42.604;23.496;2023-04-24T03:21:07;6.63;;;3.40;;
6868;SDS011;3473;42.604;23.496;2023-04-24T03:22:51;10.50;;;3.60;;
6868;SDS011;3473;42.604;23.496;2023-04-24T03:24:22;8.07;;;3.93;;
6868;SDS011;3473;42.604;23.496;2023-04-24T03:25:56;5.80;;;3.40;;
6868;SDS011;3473;42.604;23.496;2023-04-24T03:27:39;7.33;;;3.97;;
6868;SDS011;3473;42.604;23.496;2023-04-24T03:29:11;9.03;;;3.67;;
6868;SDS011;3473;42.604;23.496;2023-04-24T03:30:43;7.17;;;3.63;;
6868;SDS011;3473;42.604;23.496;2023-04-24T03:32:14;7.47;;;4.33;;
6868;SDS011;3473;42.604;23.496;2023-04-24T03:33:45;10.00;;;3.80;;
6868;SDS011;3473;42.604;23.496;2023-04-24T03:35:16;8.13;;;4.00;;
6868;SDS011;3473;42.604;23.496;2023-04-24T03:36:48;7.07;;;4.07;;
6868;SDS011;3473;42.604;23.496;2023-04-24T03:38:19;7.83;;;4.43;;
6868;SDS011;3473;42.604;23.496;2023-04-24T03:39:50;7.10;;;4.07;;
6868;SDS011;3473;42.604;23.496;2023-04-24T03:41:23;8.07;;;4.30;;
6868;SDS011;3473;42.604;23.496;2023-04-24T03:42:54;9.90;;;4.80;;
6868;SDS011;3473;42.604;23.496;2023-04-24T03:44:25;8.10;;;4.63;;
6868;SDS011;3473;42.604;23.496;2023-04-24T03:45:57;10.03;;;5.20;;
6868;SDS011;3473;42.604;23.496;2023-04-24T03:47:28;6.13;;;3.63;;
6868;SDS011;3473;42.604;23.496;2023-04-24T03:49:00;8.40;;;4.50;;
6868;SDS011;3473;42.604;23.496;2023-04-24T03:50:31;7.17;;;3.80;;
6868;SDS011;3473;42.604;23.496;2023-04-24T03:52:01;8.03;;;4.30;;
6868;SDS011;3473;42.604;23.496;2023-04-24T03:53:33;10.37;;;4.23;;
6868;SDS011;3473;42.604;23.496;2023-04-24T03:55:05;7.37;;;3.90;;
6868;SDS011;3473;42.604;23.496;2023-04-24T03:58:46;5.97;;;3.23;;
6868;SDS011;3473;42.604;23.496;2023-04-24T04:00:17;9.30;;;4.10;;
6868;SDS011;3473;42.604;23.496;2023-04-24T04:01:48;10.50;;;4.90;;
6868;SDS011;3473;42.604;23.496;2023-04-24T04:03:20;9.57;;;4.37;;
6868;SDS011;3473;42.604;23.496;2023-04-24T04:04:50;10.77;;;4.40;;
6868;SDS011;3473;42.604;23.496;2023-04-24T04:06:22;10.17;;;4.27;;
6868;SDS011;3473;42.604;23.496;2023-04-24T04:07:53;10.27;;;3.83;;
6868;SDS011;3473;42.604;23.496;2023-04-24T04:09:25;7.67;;;3.70;;
6868;SDS011;3473;42.604;23.496;2023-04-24T04:10:56;7.73;;;4.00;;
6868;SDS011;3473;42.604;23.496;2023-04-24T04:12:28;9.60;;;4.13;;
6868;SDS011;3473;42.604;23.496;2023-04-24T04:13:59;8.13;;;4.03;;
6868;SDS011;3473;42.604;23.496;2023-04-24T04:15:31;9.43;;;4.20;;
6868;SDS011;3473;42.604;23.496;2023-04-24T04:17:02;7.57;;;4.00;;
6868;SDS011;3473;42.604;23.496;2023-04-24T04:18:34;8.43;;;4.30;;
6868;SDS011;3473;42.604;23.496;2023-04-24T04:20:06;8.37;;;4.47;;
6868;SDS011;3473;42.604;23.496;2023-04-24T04:21:39;8.03;;;4.30;;
6868;SDS011;3473;42.604;23.496;2023-04-24T04:23:10;9.97;;;4.30;;
6868;SDS011;3473;42.604;23.496;2023-04-24T04:24:41;8.00;;;4.80;;
6868;SDS011;3473;42.604;23.496;2023-04-24T04:26:13;9.33;;;4.70;;
6868;SDS011;3473;42.604;23.496;2023-04-24T04:27:45;8.37;;;4.37;;
6868;SDS011;3473;42.604;23.496;2023-04-24T04:29:19;10.30;;;4.53;;
6868;SDS011;3473;42.604;23.496;2023-04-24T04:30:50;8.27;;;4.50;;
6868;SDS011;3473;42.604;23.496;2023-04-24T04:32:23;8.73;;;3.93;;
6868;SDS011;3473;42.604;23.496;2023-04-24T04:33:55;8.40;;;4.67;;
6868;SDS011;3473;42.604;23.496;2023-04-24T04:35:25;7.60;;;4.40;;
6868;SDS011;3473;42.604;23.496;2023-04-24T04:36:57;7.97;;;4.50;;
6868;SDS011;3473;42.604;23.496;2023-04-24T04:38:31;9.90;;;4.60;;
6868;SDS011;3473;42.604;23.496;2023-04-24T04:40:03;8.67;;;4.77;;
6868;SDS011;3473;42.604;23.496;2023-04-24T04:41:37;10.60;;;4.53;;
6868;SDS011;3473;42.604;23.496;2023-04-24T04:43:10;9.77;;;4.57;;
6868;SDS011;3473;42.604;23.496;2023-04-24T04:44:44;10.10;;;4.90;;
6868;SDS011;3473;42.604;23.496;2023-04-24T04:46:16;7.47;;;4.60;;
6868;SDS011;3473;42.604;23.496;2023-04-24T04:47:47;14.50;;;4.03;;
6868;SDS011;3473;42.604;23.496;2023-04-24T04:49:19;8.17;;;4.27;;
6868;SDS011;3473;42.604;23.496;2023-04-24T04:50:51;8.53;;;4.43;;
6868;SDS011;3473;42.604;23.496;2023-04-24T04:52:23;7.77;;;4.33;;
6868;SDS011;3473;42.604;23.496;2023-04-24T04:53:55;8.37;;;4.50;;
6868;SDS011;3473;42.604;23.496;2023-04-24T04:55:26;8.97;;;4.77;;
6868;SDS011;3473;42.604;23.496;2023-04-24T04:56:58;8.70;;;4.57;;
6868;SDS011;3473;42.604;23.496;2023-04-24T04:58:30;9.20;;;4.63;;
6868;SDS011;3473;42.604;23.496;2023-04-24T05:00:04;10.47;;;4.93;;
6868;SDS011;3473;42.604;23.496;2023-04-24T05:01:37;10.13;;;4.77;;
6868;SDS011;3473;42.604;23.496;2023-04-24T05:03:08;10.97;;;4.50;;
6868;SDS011;3473;42.604;23.496;2023-04-24T05:04:40;8.43;;;5.10;;
6868;SDS011;3473;42.604;23.496;2023-04-24T05:06:11;8.60;;;4.77;;
6868;SDS011;3473;42.604;23.496;2023-04-24T05:07:42;9.40;;;5.00;;
6868;SDS011;3473;42.604;23.496;2023-04-24T05:09:13;8.17;;;4.93;;
6868;SDS011;3473;42.604;23.496;2023-04-24T05:10:45;8.20;;;4.63;;
6868;SDS011;3473;42.604;23.496;2023-04-24T05:12:16;12.30;;;5.27;;
6868;SDS011;3473;42.604;23.496;2023-04-24T05:13:48;9.93;;;5.07;;
6868;SDS011;3473;42.604;23.496;2023-04-24T05:15:21;9.63;;;5.20;;
6868;SDS011;3473;42.604;23.496;2023-04-24T05:16:52;9.57;;;4.67;;
6868;SDS011;3473;42.604;23.496;2023-04-24T05:18:24;10.20;;;5.20;;
6868;SDS011;3473;42.604;23.496;2023-04-24T05:19:54;8.83;;;4.60;;
6868;SDS011;3473;42.604;23.496;2023-04-24T05:21:26;9.53;;;4.97;;
6868;SDS011;3473;42.604;23.496;2023-04-24T05:22:57;10.97;;;4.97;;
6868;SDS011;3473;42.604;23.496;2023-04-24T05:24:28;8.87;;;5.13;;
6868;SDS011;3473;42.604;23.496;2023-04-24T05:26:00;8.87;;;4.83;;
6868;SDS011;3473;42.604;23.496;2023-04-24T05:27:32;8.97;;;4.43;;
6868;SDS011;3473;42.604;23.496;2023-04-24T05:29:03;11.33;;;4.43;;
6868;SDS011;3473;42.604;23.496;2023-04-24T05:30:36;9.80;;;4.50;;
6868;SDS011;3473;42.604;23.496;2023-04-24T05:32:08;10.23;;;4.60;;
6868;SDS011;3473;42.604;23.496;2023-04-24T05:33:39;11.93;;;5.30;;
6868;SDS011;3473;42.604;23.496;2023-04-24T05:35:11;9.73;;;5.23;;
6868;SDS011;3473;42.604;23.496;2023-04-24T05:36:42;10.17;;;4.93;;
6868;SDS011;3473;42.604;23.496;2023-04-24T05:38:14;9.67;;;5.07;;
6868;SDS011;3473;42.604;23.496;2023-04-24T05:39:47;11.70;;;5.23;;
6868;SDS011;3473;42.604;23.496;2023-04-24T05:41:19;11.33;;;4.67;;
6868;SDS011;3473;42.604;23.496;2023-04-24T05:42:51;7.10;;;4.37;;
6868;SDS011;3473;42.604;23.496;2023-04-24T05:44:22;8.00;;;4.50;;
6868;SDS011;3473;42.604;23.496;2023-04-24T05:45:55;7.27;;;4.23;;
6868;SDS011;3473;42.604;23.496;2023-04-24T05:47:27;7.47;;;4.60;;
6868;SDS011;3473;42.604;23.496;2023-04-24T05:48:58;11.63;;;4.90;;
6868;SDS011;3473;42.604;23.496;2023-04-24T05:50:30;6.80;;;4.23;;
6868;SDS011;3473;42.604;23.496;2023-04-24T05:52:01;7.40;;;4.50;;
6868;SDS011;3473;42.604;23.496;2023-04-24T05:53:34;15.23;;;7.40;;
6868;SDS011;3473;42.604;23.496;2023-04-24T05:55:05;11.13;;;6.03;;
6868;SDS011;3473;42.604;23.496;2023-04-24T05:56:37;10.67;;;5.80;;
6868;SDS011;3473;42.604;23.496;2023-04-24T05:58:09;12.60;;;5.23;;
6868;SDS011;3473;42.604;23.496;2023-04-24T05:59:40;8.50;;;4.60;;
6868;SDS011;3473;42.604;23.496;2023-04-24T06:01:13;9.30;;;4.73;;
6868;SDS011;3473;42.604;23.496;2023-04-24T06:02:45;9.63;;;5.47;;
6868;SDS011;3473;42.604;23.496;2023-04-24T06:04:17;8.83;;;5.20;;
6868;SDS011;3473;42.604;23.496;2023-04-24T06:05:49;8.37;;;4.67;;
6868;SDS011;3473;42.604;23.496;2023-04-24T06:07:21;8.57;;;4.87;;
6868;SDS011;3473;42.604;23.496;2023-04-24T06:08:52;9.23;;;5.13;;
6868;SDS011;3473;42.604;23.496;2023-04-24T06:10:23;8.33;;;4.93;;
6868;SDS011;3473;42.604;23.496;2023-04-24T06:11:57;9.93;;;5.13;;
6868;SDS011;3473;42.604;23.496;2023-04-24T06:13:30;19.33;;;7.80;;
6868;SDS011;3473;42.604;23.496;2023-04-24T06:15:01;15.73;;;7.40;;
6868;SDS011;3473;42.604;23.496;2023-04-24T06:16:34;34.23;;;10.00;;
6868;SDS011;3473;42.604;23.496;2023-04-24T06:18:06;22.57;;;8.13;;
6868;SDS011;3473;42.604;23.496;2023-04-24T06:21:45;9.93;;;4.23;;
6868;SDS011;3473;42.604;23.496;2023-04-24T06:23:17;9.53;;;4.67;;
6868;SDS011;3473;42.604;23.496;2023-04-24T06:24:49;7.60;;;4.37;;
6868;SDS011;3473;42.604;23.496;2023-04-24T06:26:20;8.17;;;4.20;;
6868;SDS011;3473;42.604;23.496;2023-04-24T06:27:52;8.63;;;4.93;;
6868;SDS011;3473;42.604;23.496;2023-04-24T06:29:23;6.47;;;3.77;;
6868;SDS011;3473;42.604;23.496;2023-04-24T06:30:55;9.63;;;4.50;;
6868;SDS011;3473;42.604;23.496;2023-04-24T06:32:27;10.07;;;4.60;;
6868;SDS011;3473;42.604;23.496;2023-04-24T06:34:00;7.57;;;4.57;;
6868;SDS011;3473;42.604;23.496;2023-04-24T06:35:32;6.47;;;4.30;;
6868;SDS011;3473;42.604;23.496;2023-04-24T06:37:03;8.43;;;4.93;;
6868;SDS011;3473;42.604;23.496;2023-04-24T06:38:35;8.97;;;4.67;;
6868;SDS011;3473;42.604;23.496;2023-04-24T06:40:07;8.60;;;4.33;;
6868;SDS011;3473;42.604;23.496;2023-04-24T06:41:38;9.03;;;4.53;;
6868;SDS011;3473;42.604;23.496;2023-04-24T06:43:10;8.27;;;4.90;;
6868;SDS011;3473;42.604;23.496;2023-04-24T06:44:42;7.90;;;3.83;;
6868;SDS011;3473;42.604;23.496;2023-04-24T06:46:14;6.07;;;4.10;;
6868;SDS011;3473;42.604;23.496;2023-04-24T06:47:47;10.73;;;5.10;;
6868;SDS011;3473;42.604;23.496;2023-04-24T06:49:18;7.27;;;4.27;;
6868;SDS011;3473;42.604;23.496;2023-04-24T06:50:50;8.90;;;4.33;;
6868;SDS011;3473;42.604;23.496;2023-04-24T06:52:21;7.70;;;4.63;;
6868;SDS011;3473;42.604;23.496;2023-04-24T06:53:53;8.43;;;4.53;;
6868;SDS011;3473;42.604;23.496;2023-04-24T06:55:26;10.47;;;4.70;;
6868;SDS011;3473;42.604;23.496;2023-04-24T06:56:57;8.00;;;4.50;;
6868;SDS011;3473;42.604;23.496;2023-04-24T06:58:29;7.07;;;4.23;;
6868;SDS011;3473;42.604;23.496;2023-04-24T07:00:01;7.73;;;4.57;;
6868;SDS011;3473;42.604;23.496;2023-04-24T07:01:35;7.87;;;4.50;;
6868;SDS011;3473;42.604;23.496;2023-04-24T07:03:07;9.43;;;4.87;;
6868;SDS011;3473;42.604;23.496;2023-04-24T07:04:40;7.93;;;4.50;;
6868;SDS011;3473;42.604;23.496;2023-04-24T07:06:11;9.90;;;4.43;;
6868;SDS011;3473;42.604;23.496;2023-04-24T07:07:43;7.10;;;4.20;;
6868;SDS011;3473;42.604;23.496;2023-04-24T07:09:15;8.87;;;4.43;;
6868;SDS011;3473;42.604;23.496;2023-04-24T07:10:48;8.97;;;4.60;;
6868;SDS011;3473;42.604;23.496;2023-04-24T07:12:20;7.80;;;4.00;;
6868;SDS011;3473;42.604;23.496;2023-04-24T07:13:52;6.23;;;4.07;;
6868;SDS011;3473;42.604;23.496;2023-04-24T07:15:23;11.40;;;4.53;;
6868;SDS011;3473;42.604;23.496;2023-04-24T07:16:55;6.33;;;4.17;;
6868;SDS011;3473;42.604;23.496;2023-04-24T07:18:28;6.67;;;4.30;;
6868;SDS011;3473;42.604;23.496;2023-04-24T07:20:00;5.73;;;4.13;;
6868;SDS011;3473;42.604;23.496;2023-04-24T07:21:31;9.20;;;4.47;;
6868;SDS011;3473;42.604;23.496;2023-04-24T07:23:03;7.53;;;4.23;;
6868;SDS011;3473;42.604;23.496;2023-04-24T07:24:34;9.07;;;4.03;;
6868;SDS011;3473;42.604;23.496;2023-04-24T07:26:06;5.97;;;3.70;;
6868;SDS011;3473;42.604;23.496;2023-04-24T07:27:37;7.37;;;4.23;;
6868;SDS011;3473;42.604;23.496;2023-04-24T07:29:09;8.10;;;3.90;;
6868;SDS011;3473;42.604;23.496;2023-04-24T07:30:40;11.60;;;4.43;;
6868;SDS011;3473;42.604;23.496;2023-04-24T07:32:12;6.57;;;3.93;;
6868;SDS011;3473;42.604;23.496;2023-04-24T07:33:44;7.73;;;4.50;;
6868;SDS011;3473;42.604;23.496;2023-04-24T07:35:16;7.93;;;3.90;;
6868;SDS011;3473;42.604;23.496;2023-04-24T07:37:06;8.07;;;4.47;;
6868;SDS011;3473;42.604;23.496;2023-04-24T07:38:37;9.73;;;4.33;;
6868;SDS011;3473;42.604;23.496;2023-04-24T07:40:09;6.00;;;3.67;;
6868;SDS011;3473;42.604;23.496;2023-04-24T07:41:41;5.60;;;3.73;;
6868;SDS011;3473;42.604;23.496;2023-04-24T07:43:12;7.03;;;4.07;;
6868;SDS011;3473;42.604;23.496;2023-04-24T07:44:44;8.20;;;4.27;;
6868;SDS011;3473;42.604;23.496;2023-04-24T07:46:16;7.97;;;4.30;;
6868;SDS011;3473;42.604;23.496;2023-04-24T07:47:48;7.93;;;4.07;;
6868;SDS011;3473;42.604;23.496;2023-04-24T07:49:21;6.27;;;3.83;;
6868;SDS011;3473;42.604;23.496;2023-04-24T07:50:52;11.00;;;4.20;;
6868;SDS011;3473;42.604;23.496;2023-04-24T07:52:24;6.90;;;4.10;;
6868;SDS011;3473;42.604;23.496;2023-04-24T07:53:55;8.97;;;4.60;;
6868;SDS011;3473;42.604;23.496;2023-04-24T07:55:27;8.50;;;4.40;;
6868;SDS011;3473;42.604;23.496;2023-04-24T07:56:58;10.30;;;4.30;;
6868;SDS011;3473;42.604;23.496;2023-04-24T07:58:30;6.83;;;4.33;;
6868;SDS011;3473;42.604;23.496;2023-04-24T08:00:02;5.57;;;3.73;;
6868;SDS011;3473;42.604;23.496;2023-04-24T08:01:34;6.47;;;4.27;;
6868;SDS011;3473;42.604;23.496;2023-04-24T08:03:05;4.50;;;3.53;;
6868;SDS011;3473;42.604;23.496;2023-04-24T08:04:38;8.37;;;4.10;;
6868;SDS011;3473;42.604;23.496;2023-04-24T08:06:09;5.90;;;3.77;;
6868;SDS011;3473;42.604;23.496;2023-04-24T08:07:41;5.87;;;3.57;;
6868;SDS011;3473;42.604;23.496;2023-04-24T08:09:13;5.47;;;3.87;;
6868;SDS011;3473;42.604;23.496;2023-04-24T08:10:44;6.03;;;3.37;;
6868;SDS011;3473;42.604;23.496;2023-04-24T08:12:16;5.50;;;3.53;;
6868;SDS011;3473;42.604;23.496;2023-04-24T08:13:47;5.60;;;3.80;;
6868;SDS011;3473;42.604;23.496;2023-04-24T08:16:54;6.47;;;4.00;;
6868;SDS011;3473;42.604;23.496;2023-04-24T08:18:26;5.13;;;3.90;;
6868;SDS011;3473;42.604;23.496;2023-04-24T08:19:59;6.67;;;4.10;;
6868;SDS011;3473;42.604;23.496;2023-04-24T08:21:32;5.90;;;3.63;;
6868;SDS011;3473;42.604;23.496;2023-04-24T08:23:03;4.97;;;3.60;;
6868;SDS011;3473;42.604;23.496;2023-04-24T08:24:35;6.47;;;3.90;;
6868;SDS011;3473;42.604;23.496;2023-04-24T08:26:06;5.73;;;3.93;;
6868;SDS011;3473;42.604;23.496;2023-04-24T08:27:38;6.17;;;3.80;;
6868;SDS011;3473;42.604;23.496;2023-04-24T08:29:10;5.33;;;3.53;;
6868;SDS011;3473;42.604;23.496;2023-04-24T08:30:41;7.27;;;3.67;;
6868;SDS011;3473;42.604;23.496;2023-04-24T08:32:13;8.47;;;3.80;;
6868;SDS011;3473;42.604;23.496;2023-04-24T08:33:44;6.10;;;3.73;;
6868;SDS011;3473;42.604;23.496;2023-04-24T08:35:17;4.87;;;3.40;;
6868;SDS011;3473;42.604;23.496;2023-04-24T08:36:48;4.03;;;3.10;;
6868;SDS011;3473;42.604;23.496;2023-04-24T08:38:20;7.47;;;3.47;;
6868;SDS011;3473;42.604;23.496;2023-04-24T08:39:51;6.83;;;3.77;;
6868;SDS011;3473;42.604;23.496;2023-04-24T08:41:23;5.13;;;3.00;;
6868;SDS011;3473;42.604;23.496;2023-04-24T08:42:56;4.70;;;3.30;;
6868;SDS011;3473;42.604;23.496;2023-04-24T08:44:28;5.77;;;3.20;;
6868;SDS011;3473;42.604;23.496;2023-04-24T08:45:59;5.53;;;3.50;;
6868;SDS011;3473;42.604;23.496;2023-04-24T08:47:31;6.13;;;3.67;;
6868;SDS011;3473;42.604;23.496;2023-04-24T08:49:04;5.33;;;3.30;;
6868;SDS011;3473;42.604;23.496;2023-04-24T08:50:37;4.97;;;3.20;;
6868;SDS011;3473;42.604;23.496;2023-04-24T08:52:12;8.33;;;3.20;;
6868;SDS011;3473;42.604;23.496;2023-04-24T08:53:43;6.50;;;3.50;;
6868;SDS011;3473;42.604;23.496;2023-04-24T08:55:16;3.97;;;2.90;;
6868;SDS011;3473;42.604;23.496;2023-04-24T08:56:48;6.40;;;3.30;;
6868;SDS011;3473;42.604;23.496;2023-04-24T08:58:20;7.33;;;3.30;;
6868;SDS011;3473;42.604;23.496;2023-04-24T08:59:52;6.90;;;3.30;;
6868;SDS011;3473;42.604;23.496;2023-04-24T09:01:23;7.17;;;3.70;;
6868;SDS011;3473;42.604;23.496;2023-04-24T09:03:04;7.57;;;3.73;;
6868;SDS011;3473;42.604;23.496;2023-04-24T09:04:37;7.03;;;3.37;;
6868;SDS011;3473;42.604;23.496;2023-04-24T09:06:10;6.63;;;3.73;;
6868;SDS011;3473;42.604;23.496;2023-04-24T09:07:42;5.03;;;3.50;;
6868;SDS011;3473;42.604;23.496;2023-04-24T09:09:15;5.90;;;3.00;;
6868;SDS011;3473;42.604;23.496;2023-04-24T09:10:47;5.83;;;3.63;;
6868;SDS011;3473;42.604;23.496;2023-04-24T09:12:19;4.93;;;3.70;;
6868;SDS011;3473;42.604;23.496;2023-04-24T09:13:50;5.43;;;3.50;;
6868;SDS011;3473;42.604;23.496;2023-04-24T09:15:22;7.05;;;4.07;;
6868;SDS011;3473;42.604;23.496;2023-04-24T09:16:54;5.30;;;3.65;;
6868;SDS011;3473;42.604;23.496;2023-04-24T09:18:25;5.63;;;4.03;;
6868;SDS011;3473;42.604;23.496;2023-04-24T09:19:57;5.40;;;3.35;;
6868;SDS011;3473;42.604;23.496;2023-04-24T09:21:32;5.77;;;3.30;;
6868;SDS011;3473;42.604;23.496;2023-04-24T09:23:04;6.10;;;3.60;;
6868;SDS011;3473;42.604;23.496;2023-04-24T09:24:35;4.83;;;3.37;;
6868;SDS011;3473;42.604;23.496;2023-04-24T09:26:07;4.23;;;3.20;;
6868;SDS011;3473;42.604;23.496;2023-04-24T09:27:43;5.20;;;3.40;;